createdAt,value
2019-03-06T00:00:16.537Z,13.93
2019-03-06T00:05:19.794Z,20.47
2019-03-06T00:10:24.322Z,17.53
2019-03-06T00:15:34.164Z,37.50
2019-03-06T00:20:36.675Z,16.37
2019-03-06T00:25:38.933Z,19.83
2019-03-06T00:30:43.953Z,23.00
2019-03-06T00:35:48.075Z,18.97
2019-03-06T00:41:08.127Z,26.30
2019-03-06T00:46:10.398Z,23.47
2019-03-06T00:51:12.422Z,21.67
2019-03-06T00:56:14.651Z,21.30
2019-03-06T01:01:16.791Z,25.43
2019-03-06T01:06:18.995Z,29.27
2019-03-06T01:11:21.431Z,33.87
2019-03-06T01:16:23.802Z,31.83
2019-03-06T01:21:33.787Z,33.87
2019-03-06T01:26:39.134Z,28.67
2019-03-06T01:31:44.147Z,42.83
2019-03-06T01:37:01.549Z,35.63
2019-03-06T01:42:23.668Z,36.43
2019-03-06T01:47:26.172Z,41.83
2019-03-06T01:52:31.102Z,36.73
2019-03-06T01:57:35.014Z,36.17
2019-03-06T02:02:40.229Z,41.33
2019-03-06T02:07:43.845Z,41.83
2019-03-06T02:12:46.116Z,42.23
2019-03-06T02:17:48.156Z,41.17
2019-03-06T02:22:51.640Z,32.53
2019-03-06T02:27:56.827Z,39.90
2019-03-06T02:33:01.567Z,41.53
2019-03-06T02:38:06.482Z,36.63
2019-03-06T02:43:10.939Z,39.83
2019-03-06T02:48:15.890Z,43.50
2019-03-06T02:53:19.671Z,44.07
2019-03-06T02:58:25.347Z,36.50
2019-03-06T03:03:45.637Z,37.30
2019-03-06T03:08:49.691Z,41.17
2019-03-06T03:13:53.673Z,34.33
2019-03-06T03:18:57.256Z,36.63
2019-03-06T03:23:59.504Z,43.93
2019-03-06T03:29:01.534Z,40.03
2019-03-06T03:34:03.583Z,32.63
2019-03-06T03:39:06.991Z,34.47
2019-03-06T03:44:09.085Z,34.67
2019-03-06T03:49:13.365Z,34.97
2019-03-06T03:54:17.406Z,36.47
2019-03-06T03:59:21.916Z,30.43
2019-03-06T04:04:24.080Z,36.50
2019-03-06T04:09:26.178Z,26.63
2019-03-06T04:14:28.472Z,31.20
2019-03-06T04:19:30.563Z,32.20
2019-03-06T04:24:33.099Z,36.90
2019-03-06T04:29:36.987Z,28.50
2019-03-06T04:34:42.166Z,30.03
2019-03-06T04:39:46.191Z,28.03
2019-03-06T04:44:48.350Z,27.20
2019-03-06T04:49:52.994Z,29.93
2019-03-06T04:54:55.354Z,31.70
2019-03-06T04:59:57.419Z,24.17
2019-03-06T05:05:06.685Z,21.90
2019-03-06T05:10:08.825Z,27.10
2019-03-06T05:15:12.302Z,31.03
2019-03-06T05:20:14.327Z,23.63
2019-03-06T05:25:17.734Z,26.50
2019-03-06T05:36:19.469Z,26.60
2019-03-06T05:41:21.492Z,17.77
2019-03-06T05:46:25.131Z,31.10
2019-03-06T05:51:30.095Z,23.97
2019-03-06T05:56:32.137Z,21.33
2019-03-06T06:01:37.213Z,18.83
2019-03-06T06:06:39.509Z,16.50
2019-03-06T06:11:45.638Z,25.33
2019-03-06T06:16:50.549Z,20.37
2019-03-06T06:22:05.561Z,22.70
2019-03-06T06:27:07.835Z,22.03
2019-03-06T06:32:09.882Z,24.43
2019-03-06T06:37:11.966Z,19.47
2019-03-06T06:42:16.432Z,15.27
2019-03-06T06:47:18.692Z,19.73
2019-03-06T06:52:58.360Z,17.37
2019-03-06T06:58:35.897Z,15.40
2019-03-06T07:04:40.361Z,19.37
2019-03-06T07:10:00.792Z,15.47
2019-03-06T07:15:37.805Z,14.27
2019-03-06T07:20:51.958Z,17.87
2019-03-06T07:26:07.338Z,16.17
2019-03-06T07:31:16.329Z,13.10
2019-03-06T07:36:39.537Z,13.80
2019-03-06T07:41:53.096Z,11.73
2019-03-06T07:47:24.397Z,12.50
2019-03-06T07:52:51.922Z,11.37
2019-03-06T07:58:32.907Z,12.57
2019-03-06T08:03:48.048Z,13.93
2019-03-06T08:08:53.221Z,12.93
2019-03-06T08:14:01.048Z,14.50
2019-03-06T08:19:12.763Z,14.60
2019-03-06T08:24:41.518Z,10.70
2019-03-06T08:29:47.706Z,15.43
2019-03-06T08:34:49.850Z,13.37
2019-03-06T08:39:51.909Z,14.93
2019-03-06T08:44:54.245Z,19.17
2019-03-06T08:50:08.526Z,14.33
2019-03-06T08:55:35.363Z,10.17
2019-03-06T09:01:00.553Z,9.90
2019-03-06T09:06:11.699Z,10.90
2019-03-06T09:11:26.355Z,12.93
2019-03-06T09:17:06.790Z,11.97
2019-03-06T09:22:22.013Z,13.97
2019-03-06T09:27:36.726Z,15.57
2019-03-06T09:33:04.016Z,11.37
2019-03-06T09:38:33.055Z,9.07
2019-03-06T09:44:07.183Z,13.30
2019-03-06T09:49:17.781Z,15.23
2019-03-06T09:54:49.474Z,8.97
2019-03-06T09:59:58.330Z,13.63
2019-03-06T10:05:26.119Z,10.97
2019-03-06T10:10:57.214Z,16.53
2019-03-06T10:16:02.773Z,14.07
2019-03-06T10:21:04.799Z,10.37
2019-03-06T10:26:11.544Z,11.47
2019-03-06T10:31:15.167Z,11.17
2019-03-06T10:36:17.216Z,13.80
2019-03-06T10:41:21.305Z,12.03
2019-03-06T10:46:23.640Z,12.07
2019-03-06T10:51:28.538Z,11.53
2019-03-06T10:56:34.658Z,11.10
2019-03-06T11:01:39.496Z,12.97
2019-03-06T11:06:46.496Z,12.43
2019-03-06T11:11:48.551Z,9.37
2019-03-06T11:16:50.794Z,9.37
2019-03-06T11:21:56.166Z,12.47
2019-03-06T11:26:58.687Z,12.57
2019-03-06T11:32:02.207Z,14.63
2019-03-06T11:37:05.138Z,14.20
2019-03-06T11:42:08.040Z,12.50
2019-03-06T11:47:13.041Z,14.00
2019-03-06T11:52:15.244Z,10.53
2019-03-06T11:57:18.967Z,11.80
2019-03-06T12:02:24.143Z,13.57
2019-03-06T12:07:30.659Z,8.87
2019-03-06T12:12:38.699Z,10.60
2019-03-06T12:17:40.972Z,10.57
2019-03-06T12:22:43.403Z,9.30
2019-03-06T12:27:45.716Z,15.77
2019-03-06T12:32:47.802Z,11.47
2019-03-06T12:37:49.981Z,8.13
2019-03-06T12:42:52.110Z,11.13
2019-03-06T12:47:55.659Z,8.70
2019-03-06T12:53:00.188Z,15.63
2019-03-06T12:58:02.648Z,15.07
2019-03-06T13:03:04.775Z,16.13
2019-03-06T13:08:19.631Z,15.20
2019-03-06T13:13:20.748Z,11.93
2019-03-06T13:18:22.881Z,11.90
2019-03-06T13:23:24.916Z,11.60
2019-03-06T13:28:27.891Z,11.43
2019-03-06T13:33:43.828Z,11.83
2019-03-06T13:38:54.754Z,19.10
2019-03-06T13:43:52.455Z,13.10
2019-03-06T13:48:56.762Z,14.77
2019-03-06T13:54:03.738Z,12.83
2019-03-06T13:59:08.246Z,11.53
2019-03-06T14:04:16.081Z,11.43
2019-03-06T14:09:20.640Z,8.87
2019-03-06T14:14:23.133Z,9.73
2019-03-06T14:19:25.187Z,10.93
2019-03-06T14:24:28.575Z,10.33
2019-03-06T14:29:30.608Z,13.83
2019-03-06T14:34:32.811Z,11.27
2019-03-06T14:39:35.742Z,12.23
2019-03-06T14:44:38.054Z,14.57
2019-03-06T14:49:40.242Z,15.90
2019-03-06T14:54:45.947Z,9.50
2019-03-06T14:59:48.083Z,11.37
2019-03-06T15:04:54.255Z,16.23
2019-03-06T15:09:56.445Z,9.47
2019-03-06T15:15:07.500Z,9.80
2019-03-06T15:20:12.162Z,9.40
2019-03-06T15:25:16.744Z,9.07
2019-03-06T15:30:20.632Z,15.07
2019-03-06T15:35:23.220Z,16.00
2019-03-06T15:40:26.691Z,10.73
2019-03-06T15:45:32.759Z,9.30
2019-03-06T15:50:39.300Z,13.13
2019-03-06T15:55:45.590Z,14.57
2019-03-06T16:00:51.208Z,13.50
2019-03-06T16:05:53.413Z,11.20
2019-03-06T16:10:55.493Z,9.17
2019-03-06T16:15:57.605Z,13.83
2019-03-06T16:20:59.884Z,10.77
2019-03-06T16:26:04.285Z,11.07
2019-03-06T16:31:10.266Z,11.57
2019-03-06T16:36:16.624Z,8.77
2019-03-06T16:41:26.145Z,9.40
2019-03-06T16:46:28.576Z,7.23
2019-03-06T16:51:30.659Z,7.33
2019-03-06T16:56:33.913Z,12.50
2019-03-06T17:01:43.355Z,28.33
2019-03-06T17:06:45.322Z,12.90
2019-03-06T17:11:48.578Z,13.00
2019-03-06T17:17:38.929Z,13.00
2019-03-06T17:22:46.645Z,11.20
2019-03-06T17:27:52.704Z,8.40
2019-03-06T17:33:03.878Z,15.87
2019-03-06T17:38:14.198Z,10.47
2019-03-06T17:43:19.026Z,12.35
2019-03-06T17:48:24.127Z,13.17
2019-03-06T17:53:30.252Z,11.53
2019-03-06T17:58:33.100Z,13.63
2019-03-06T18:03:51.479Z,14.57
2019-03-06T18:08:53.308Z,16.43
2019-03-06T18:13:59.006Z,16.43
2019-03-06T18:19:01.079Z,11.57
2019-03-06T18:24:08.026Z,16.85
2019-03-06T18:29:10.124Z,15.10
2019-03-06T18:34:13.645Z,11.90
2019-03-06T18:39:22.037Z,10.60
2019-03-06T18:44:24.444Z,18.17
2019-03-06T18:49:26.578Z,15.43
2019-03-06T18:54:28.956Z,15.13
2019-03-06T18:59:31.010Z,12.83
2019-03-06T19:04:34.130Z,12.07
2019-03-06T19:09:36.252Z,15.60
2019-03-06T19:14:45.047Z,15.67
2019-03-06T19:19:47.123Z,15.87
2019-03-06T19:24:49.694Z,13.93
2019-03-06T19:29:53.017Z,16.00
2019-03-06T19:34:55.974Z,14.13
2019-03-06T19:39:58.349Z,15.13
2019-03-06T19:45:01.783Z,13.20
2019-03-06T19:50:07.602Z,17.57
2019-03-06T19:55:12.335Z,13.03
2019-03-06T20:00:15.248Z,16.30
2019-03-06T20:05:21.149Z,15.23
2019-03-06T20:10:24.428Z,14.53
2019-03-06T20:15:26.667Z,19.60
2019-03-06T20:20:28.709Z,15.67
2019-03-06T20:25:31.471Z,15.83
2019-03-06T20:30:35.972Z,18.07
2019-03-06T20:35:38.820Z,19.43
2019-03-06T20:40:44.071Z,14.03
2019-03-06T20:45:50.403Z,20.10
2019-03-06T20:50:55.006Z,17.07
2019-03-06T20:55:58.510Z,13.00
2019-03-06T21:01:00.525Z,17.20
2019-03-06T21:06:07.442Z,18.73
2019-03-06T21:11:09.446Z,19.57
2019-03-06T21:16:14.038Z,22.63
2019-03-06T21:21:20.807Z,17.03
2019-03-06T21:26:23.225Z,16.77
2019-03-06T21:31:28.340Z,17.83
2019-03-06T21:36:30.851Z,15.97
2019-03-06T21:41:32.879Z,16.83
2019-03-06T21:46:35.125Z,18.43
2019-03-06T21:51:37.231Z,16.23
2019-03-06T21:56:39.542Z,22.77
2019-03-06T22:01:46.152Z,23.23
2019-03-06T22:06:49.174Z,18.67
2019-03-06T22:11:55.825Z,24.50
2019-03-06T22:16:57.962Z,17.67
2019-03-06T22:22:00.105Z,20.70
2019-03-06T22:27:02.174Z,19.03
2019-03-06T22:32:09.667Z,24.20
2019-03-06T22:37:12.679Z,21.23
2019-03-06T22:42:14.947Z,22.90
2019-03-06T22:47:17.378Z,22.20
2019-03-06T22:52:22.875Z,20.93
2019-03-06T22:57:26.598Z,22.17
2019-03-06T23:02:30.038Z,18.30
2019-03-06T23:07:32.422Z,19.07
2019-03-06T23:12:34.886Z,20.93
2019-03-06T23:17:36.960Z,16.93
2019-03-06T23:22:41.660Z,24.43
2019-03-06T23:27:45.544Z,16.87
2019-03-06T23:32:48.793Z,18.33
2019-03-06T23:37:55.288Z,21.37
2019-03-06T23:42:58.905Z,19.23
2019-03-06T23:48:00.922Z,22.83
2019-03-06T23:53:08.551Z,17.37
2019-03-06T23:58:13.546Z,21.73
